Westminster, Colorado
Current Conditions -  °F | °C
As of 9:47 PM on Sunday 19 Oct 2014 (Local Time) from KBJC Reporting Station
Scattered Clouds Scattered Clouds  
Wind Chill: 57°   Ceiling: Unl
Heat Index: 57°   Visibility: 30mi
Dew Point: 32°   Wind: 6mph
Humidity: 38%   Direction: 260°W
Pressure: 30.18"   Gusts: NA
Location:  39.86°N, 105.04°W
Report Text: KBJC 200347Z 26005KT 30SM FEW110 SCT200 14/00 A3018
Loading
Personal Weather Stations






























Interactive Weather Map
Tropical Storm Tracking
New forecast layout! Learn more

10-Day Weather Forecast

Advertisements
Track Severe Weather on mobile